Time;durP1;ratioP1;P1;durP2;ratioP2;P2;SDS_P1;SDS_P2;PMS_P1;PMS_P2;Temp;Humidity;BMP_temperature;BMP_pressure;BME280_temperature;BME280_humidity;BME280_pressure;Samples;Min_cycle;Max_cycle;Signal;HPM_P1;HPM_P2
2021/09/06 00:01:08;;;;;;;24.13;15.53;;;;;;;11.28;79.00;101578.00;5007312;28;20199;-71
2021/09/06 00:03:35;;;;;;;24.37;15.97;;;;;;;11.25;79.48;101587.03;5002220;28;20224;-71
2021/09/06 00:06:01;;;;;;;23.63;14.90;;;;;;;11.22;79.67;101587.16;5004820;28;20576;-68
2021/09/06 00:08:29;;;;;;;29.00;17.80;;;;;;;11.22;79.86;101575.63;5004580;28;20216;-72
2021/09/06 00:11:04;;;;;;;35.67;18.17;;;;;;;11.22;80.21;101575.63;5007372;28;20203;-70
2021/09/06 00:13:31;;;;;;;29.27;17.60;;;;;;;11.22;80.31;101576.50;5007537;28;20616;-69
2021/09/06 00:15:58;;;;;;;24.77;17.17;;;;;;;11.24;80.61;101574.63;4999366;28;20573;-70
2021/09/06 00:18:26;;;;;;;27.60;17.47;;;;;;;11.25;81.05;101575.50;4997514;28;20773;-72
2021/09/06 00:20:53;;;;;;;23.17;15.53;;;;;;;11.25;80.97;101575.50;5001082;28;20255;-70
2021/09/06 00:23:20;;;;;;;20.43;15.30;;;;;;;11.23;80.67;101574.69;5003412;28;20727;-72
2021/09/06 00:25:48;;;;;;;18.83;13.57;;;;;;;11.20;80.75;101569.53;4991272;28;20231;-71
2021/09/06 00:28:15;;;;;;;29.53;15.30;;;;;;;11.17;81.01;101578.53;4994120;28;20219;-71
2021/09/06 00:30:42;;;;;;;60.33;17.00;;;;;;;11.14;81.11;101579.53;5003372;28;20209;-72
2021/09/06 00:33:10;;;;;;;27.73;14.17;;;;;;;11.11;81.02;101576.16;5002350;28;20230;-71
2021/09/06 00:35:37;;;;;;;45.13;15.60;;;;;;;11.06;81.17;101576.44;4996948;28;20586;-73
2021/09/06 00:38:04;;;;;;;24.53;15.10;;;;;;;11.03;81.48;101571.25;4994075;28;20204;-70
2021/09/06 00:40:30;;;;;;;52.70;16.27;;;;;;;11.01;81.65;101575.78;5007984;28;20219;-73
2021/09/06 00:42:58;;;;;;;29.00;17.43;;;;;;;11.00;81.85;101584.72;5000662;28;20226;-71
2021/09/06 00:45:25;;;;;;;28.07;17.00;;;;;;;11.01;82.13;101581.13;5007150;28;20884;-71
2021/09/06 00:47:52;;;;;;;33.67;17.40;;;;;;;11.02;82.59;101582.84;5006971;28;20210;-71
2021/09/06 00:50:19;;;;;;;29.57;16.83;;;;;;;11.04;82.74;101580.97;5002041;28;20653;-70
2021/09/06 00:52:47;;;;;;;29.17;16.40;;;;;;;11.06;83.03;101584.44;4999002;28;20705;-71
2021/09/06 00:55:15;;;;;;;32.90;17.63;;;;;;;11.08;83.01;101584.34;5004423;28;20215;-71
2021/09/06 00:57:42;;;;;;;28.67;18.37;;;;;;;11.09;82.86;101594.06;5091281;22;20229;-74
2021/09/06 01:00:12;;;;;;;32.83;17.47;;;;;;;11.10;83.20;101586.00;5022421;28;20207;-74
2021/09/06 01:02:39;;;;;;;38.33;16.60;;;;;;;11.10;83.56;101579.81;5022650;28;20204;-74
2021/09/06 01:05:06;;;;;;;33.53;15.50;;;;;;;11.07;83.48;101578.16;5025423;28;20229;-74
2021/09/06 01:07:33;;;;;;;32.50;16.03;;;;;;;11.07;83.35;101582.63;5026593;28;20609;-74
2021/09/06 01:10:01;;;;;;;22.43;17.10;;;;;;;11.05;83.94;101582.69;5024794;28;20198;-74
2021/09/06 01:12:28;;;;;;;23.73;14.70;;;;;;;11.05;84.07;101585.38;5028595;28;20222;-74
2021/09/06 01:14:54;;;;;;;26.43;17.10;;;;;;;11.04;84.14;101580.97;5029383;28;20217;-74
2021/09/06 01:17:22;;;;;;;30.03;16.73;;;;;;;11.03;84.05;101579.25;5020433;28;20222;-74
2021/09/06 01:19:49;;;;;;;31.13;16.37;;;;;;;11.00;84.13;101579.38;5030999;28;20201;-74
2021/09/06 01:22:15;;;;;;;49.33;16.97;;;;;;;10.97;84.01;101582.19;5027430;28;20209;-74
2021/09/06 01:24:42;;;;;;;35.63;17.10;;;;;;;10.94;84.27;101579.69;5028892;28;20206;-74
2021/09/06 01:27:10;;;;;;;40.27;17.10;;;;;;;10.91;84.36;101585.19;5028618;28;20207;-74
2021/09/06 01:29:36;;;;;;;71.37;19.43;;;;;;;10.88;84.11;101582.69;5029468;28;20206;-74
2021/09/06 01:32:05;;;;;;;86.37;21.90;;;;;;;10.83;83.97;101574.03;5029591;28;20222;-74
2021/09/06 01:34:31;;;;;;;41.67;19.97;;;;;;;10.77;83.77;101579.66;5029686;28;20210;-74
2021/09/06 01:36:58;;;;;;;44.53;18.47;;;;;;;10.75;84.32;101579.75;5031316;28;20208;-74
2021/09/06 01:39:25;;;;;;;33.40;18.13;;;;;;;10.72;84.06;101579.06;5028995;28;20210;-74
2021/09/06 01:41:52;;;;;;;29.70;18.53;;;;;;;10.68;84.18;101582.78;5025209;28;20202;-74
2021/09/06 01:44:20;;;;;;;33.13;18.80;;;;;;;10.67;84.37;101581.06;5030813;28;20466;-74
2021/09/06 01:46:47;;;;;;;42.13;18.67;;;;;;;10.66;84.32;101579.34;5025537;28;20203;-73
2021/09/06 01:49:13;;;;;;;35.50;20.27;;;;;;;10.66;84.59;101579.34;5029419;28;20222;-74
2021/09/06 01:51:40;;;;;;;30.50;18.00;;;;;;;10.65;84.77;101569.63;5028980;28;20215;-74
2021/09/06 01:54:07;;;;;;;30.03;17.33;;;;;;;10.64;84.50;101576.75;5028561;28;20206;-74
2021/09/06 01:56:33;;;;;;;26.97;18.07;;;;;;;10.61;84.42;101566.25;5030671;28;20206;-74
2021/09/06 01:59:00;;;;;;;33.97;17.97;;;;;;;10.60;84.84;101568.97;5030370;28;20230;-74
2021/09/06 02:01:28;;;;;;;32.60;18.07;;;;;;;10.58;84.54;101576.16;5027010;28;20209;-74
2021/09/06 02:03:54;;;;;;;29.90;18.43;;;;;;;10.56;84.86;101562.09;5024658;28;20203;-74
2021/09/06 02:06:21;;;;;;;30.07;18.33;;;;;;;10.54;85.02;101566.63;5027117;28;20210;-74
2021/09/06 02:08:47;;;;;;;32.97;19.87;;;;;;;10.53;84.74;101568.44;5029885;28;20232;-74
2021/09/06 02:11:15;;;;;;;31.50;20.20;;;;;;;10.55;85.23;101566.56;5029811;28;20360;-74
2021/09/06 02:13:42;;;;;;;34.37;19.43;;;;;;;10.57;85.05;101562.00;5029314;28;20293;-74
2021/09/06 02:16:08;;;;;;;38.90;20.63;;;;;;;10.59;85.38;101569.91;5030271;28;20209;-74
2021/09/06 02:18:36;;;;;;;25.37;17.53;;;;;;;10.61;85.83;101576.03;5024309;28;20842;-74
2021/09/06 02:21:03;;;;;;;26.33;17.33;;;;;;;10.65;85.64;101572.28;5030040;28;20202;-74
2021/09/06 02:23:29;;;;;;;24.97;16.57;;;;;;;10.67;85.41;101573.06;5028094;28;20208;-74
2021/09/06 02:25:56;;;;;;;27.53;18.20;;;;;;;10.69;85.49;101574.72;5029260;28;20202;-74
2021/09/06 02:28:22;;;;;;;26.90;18.23;;;;;;;10.71;85.88;101572.00;5027531;28;20244;-74
2021/09/06 02:30:49;;;;;;;27.10;18.17;;;;;;;10.72;86.01;101568.41;5029135;28;20202;-74
2021/09/06 02:33:15;;;;;;;31.80;17.10;;;;;;;10.73;85.99;101570.97;5030067;28;20229;-74
2021/09/06 02:35:43;;;;;;;37.13;17.27;;;;;;;10.72;85.82;101573.72;5033089;28;20198;-74
2021/09/06 02:38:09;;;;;;;41.70;18.67;;;;;;;10.67;85.49;101570.41;5024164;28;20325;-74
2021/09/06 02:40:36;;;;;;;45.23;18.80;;;;;;;10.62;85.37;101573.28;5029506;28;20210;-74
2021/09/06 02:43:03;;;;;;;35.00;18.37;;;;;;;10.57;85.25;101575.31;5028698;28;20195;-74
2021/09/06 02:45:29;;;;;;;27.00;17.30;;;;;;;10.52;85.50;101572.03;5029100;28;20210;-74
2021/09/06 02:47:56;;;;;;;28.67;17.57;;;;;;;10.49;85.56;101576.63;5029927;28;20218;-74
2021/09/06 02:50:22;;;;;;;37.80;18.57;;;;;;;10.47;85.63;101570.50;5028819;28;20203;-74
2021/09/06 02:52:51;;;;;;;31.00;17.77;;;;;;;10.40;85.08;101565.47;5029467;28;20218;-74
2021/09/06 02:55:18;;;;;;;34.27;17.43;;;;;;;10.36;85.21;101571.03;5026092;28;20217;-74
2021/09/06 02:57:44;;;;;;;23.30;15.23;;;;;;;10.30;85.22;101569.53;5022209;28;20226;-74
2021/09/06 03:00:12;;;;;;;22.30;15.63;;;;;;;10.27;84.98;101567.00;5030336;28;20210;-74
2021/09/06 03:02:39;;;;;;;26.67;16.93;;;;;;;10.25;85.21;101568.00;5029044;28;20202;-74
2021/09/06 03:05:07;;;;;;;26.20;15.80;;;;;;;10.23;85.09;101562.75;5030507;28;20201;-74
2021/09/06 03:07:33;;;;;;;30.37;17.07;;;;;;;10.20;85.14;101562.94;5028481;28;20288;-74
2021/09/06 03:10:01;;;;;;;37.47;17.27;;;;;;;10.19;85.33;101558.53;5022712;28;20594;-74
2021/09/06 03:12:28;;;;;;;41.73;15.23;;;;;;;10.21;85.35;101555.81;5026220;28;20229;-74
2021/09/06 03:14:55;;;;;;;23.33;15.00;;;;;;;10.20;85.24;101559.41;5027707;28;20206;-74
2021/09/06 03:17:21;;;;;;;26.13;15.07;;;;;;;10.20;85.40;101562.94;5025472;28;20582;-74
2021/09/06 03:19:48;;;;;;;19.80;14.40;;;;;;;10.21;85.54;101561.97;5026065;28;20210;-74
2021/09/06 03:22:16;;;;;;;45.40;15.07;;;;;;;10.25;85.93;101554.69;5027670;28;20203;-74
2021/09/06 03:24:42;;;;;;;30.63;14.03;;;;;;;10.24;86.43;101561.81;5027161;28;20209;-74
2021/09/06 03:27:10;;;;;;;26.10;15.80;;;;;;;10.25;85.94;101555.56;5028479;28;20216;-74
2021/09/06 03:29:37;;;;;;;86.63;17.57;;;;;;;10.26;86.03;101554.63;5029113;28;20609;-74
2021/09/06 03:32:04;;;;;;;40.43;16.33;;;;;;;10.26;86.13;101554.63;5028959;28;20576;-74
2021/09/06 03:34:31;;;;;;;29.07;15.37;;;;;;;10.25;86.14;101544.03;5026585;28;20199;-74
2021/09/06 03:36:57;;;;;;;41.33;17.53;;;;;;;10.23;86.57;101554.75;5029997;28;20561;-74
2021/09/06 03:39:24;;;;;;;31.57;16.67;;;;;;;10.20;86.50;101560.25;5027601;28;20694;-74
2021/09/06 03:41:50;;;;;;;48.27;17.70;;;;;;;10.20;86.37;101562.94;5027179;28;20202;-74
2021/09/06 03:44:19;;;;;;;27.20;15.33;;;;;;;10.21;86.51;101545.97;5029157;28;20608;-74
2021/09/06 03:46:45;;;;;;;30.63;16.23;;;;;;;10.20;87.03;101549.63;5026649;28;20198;-74
2021/09/06 03:49:12;;;;;;;30.53;17.60;;;;;;;10.22;87.11;101557.50;5017955;28;20727;-74
2021/09/06 03:51:38;;;;;;;26.00;16.87;;;;;;;10.23;86.86;101551.25;5027452;28;20212;-74
2021/09/06 03:54:05;;;;;;;27.40;17.00;;;;;;;10.23;87.24;101559.22;5023498;28;20219;-74
2021/09/06 03:56:31;;;;;;;36.47;17.83;;;;;;;10.24;86.71;101558.28;5027210;28;20568;-74
2021/09/06 03:58:58;;;;;;;37.47;17.23;;;;;;;10.25;87.43;101555.56;5028103;28;20245;-74
2021/09/06 04:01:26;;;;;;;34.97;18.17;;;;;;;10.27;86.95;101555.50;5027074;28;20202;-74
2021/09/06 04:03:52;;;;;;;46.20;16.93;;;;;;;10.28;86.89;101558.09;5027865;28;20198;-74
2021/09/06 04:06:19;;;;;;;57.30;17.03;;;;;;;10.29;87.58;101554.47;5030424;28;20678;-74
2021/09/06 04:08:46;;;;;;;61.70;16.83;;;;;;;10.29;87.20;101557.16;5028681;28;20237;-74
2021/09/06 04:11:13;;;;;;;30.27;16.00;;;;;;;10.29;87.40;101561.59;5019570;28;20206;-74
2021/09/06 04:13:40;;;;;;;40.73;14.60;;;;;;;10.29;87.31;101574.91;5024521;28;21362;-74
2021/09/06 04:16:08;;;;;;;40.17;14.47;;;;;;;10.28;87.30;101574.06;5022393;28;20435;-74
2021/09/06 04:18:35;;;;;;;48.33;15.37;;;;;;;10.29;86.90;101586.44;5028602;28;20330;-74
2021/09/06 04:21:02;;;;;;;29.40;14.73;;;;;;;10.29;87.33;101594.41;5028259;28;20206;-74
2021/09/06 04:23:29;;;;;;;41.67;14.70;;;;;;;10.30;87.13;101588.16;5030672;28;20297;-74
2021/09/06 04:25:55;;;;;;;31.40;14.33;;;;;;;10.29;87.19;101597.09;5021085;28;20202;-74
2021/09/06 04:28:22;;;;;;;29.07;14.43;;;;;;;10.29;87.33;101594.41;5025450;28;20586;-74
2021/09/06 04:30:48;;;;;;;26.33;14.77;;;;;;;10.30;86.95;101609.47;5025906;28;20205;-74
2021/09/06 04:33:15;;;;;;;67.50;15.90;;;;;;;10.30;87.26;101597.94;5021856;28;20219;-74
2021/09/06 04:35:43;;;;;;;21.77;15.03;;;;;;;10.30;87.60;101603.28;5032273;28;20207;-74
2021/09/06 04:38:09;;;;;;;19.37;14.00;;;;;;;10.30;87.12;101600.63;5023952;28;20703;-74
2021/09/06 04:40:36;;;;;;;62.13;17.37;;;;;;;10.32;87.56;101604.06;5022544;28;20210;-74
2021/09/06 04:43:02;;;;;;;32.57;15.53;;;;;;;10.33;87.50;101608.47;5019167;28;20760;-74
2021/09/06 04:45:29;;;;;;;44.83;15.93;;;;;;;10.33;87.55;101609.31;5028785;28;21527;-74
2021/09/06 04:47:55;;;;;;;24.77;14.97;;;;;;;10.33;87.85;101611.13;5028497;28;20233;-74
2021/09/06 04:50:25;;;;;;;28.83;16.07;;;;;;;10.34;87.78;101605.72;5023555;28;20289;-74
2021/09/06 04:52:55;;;;;;;35.53;14.60;;;;;;;10.36;87.85;101603.88;5022721;28;20759;-75
2021/09/06 04:55:21;;;;;;;24.70;13.07;;;;;;;10.37;87.70;101605.59;5019922;28;20260;-73
2021/09/06 04:57:48;;;;;;;19.53;13.27;;;;;;;10.36;87.84;101609.19;5019678;28;20612;-74
2021/09/06 05:00:15;;;;;;;30.47;12.90;;;;;;;10.36;87.50;101609.19;5025032;28;20678;-74
2021/09/06 05:02:42;;;;;;;29.27;12.57;;;;;;;10.36;87.48;101606.53;5027773;28;20587;-73
2021/09/06 05:05:10;;;;;;;19.13;11.90;;;;;;;10.35;87.56;101606.59;5029811;28;20293;-73
2021/09/06 05:07:36;;;;;;;16.77;11.77;;;;;;;10.35;87.82;101610.13;5019705;28;20223;-73
2021/09/06 05:10:05;;;;;;;43.10;12.00;;;;;;;10.35;87.41;101607.47;5026286;28;20203;-73
2021/09/06 05:12:32;;;;;;;15.03;11.20;;;;;;;10.33;87.12;101619.97;5024448;28;20293;-73
2021/09/06 05:14:59;;;;;;;16.90;12.93;;;;;;;10.33;87.55;101612.00;5021379;28;20222;-74
2021/09/06 05:17:25;;;;;;;18.73;11.60;;;;;;;10.34;87.47;101616.38;5018636;28;20221;-74
2021/09/06 05:19:52;;;;;;;25.23;12.63;;;;;;;10.34;87.16;101620.84;5022327;28;20221;-74
2021/09/06 05:22:18;;;;;;;19.70;12.63;;;;;;;10.33;87.25;101627.97;5022395;28;20206;-73
2021/09/06 05:24:45;;;;;;;14.77;11.50;;;;;;;10.33;87.69;101622.63;5021781;28;20209;-73
2021/09/06 05:27:13;;;;;;;33.40;11.57;;;;;;;10.32;87.37;101623.56;5021188;28;20707;-73
2021/09/06 05:29:39;;;;;;;20.47;11.83;;;;;;;10.31;87.35;101624.50;5025606;28;20799;-73
2021/09/06 05:32:07;;;;;;;24.87;13.40;;;;;;;10.31;87.41;101629.84;5025401;28;20198;-73
2021/09/06 05:34:33;;;;;;;16.93;11.33;;;;;;;10.29;87.67;101630.84;5029291;28;20234;-73
2021/09/06 05:37:00;;;;;;;19.10;11.03;;;;;;;10.26;87.18;101630.97;5028412;28;20207;-73
2021/09/06 05:39:26;;;;;;;25.67;12.37;;;;;;;10.24;87.43;101638.16;5030230;28;20213;-72
2021/09/06 05:41:53;;;;;;;17.03;11.93;;;;;;;10.23;87.39;101631.97;5030181;28;20199;-72
2021/09/06 05:44:20;;;;;;;22.77;12.67;;;;;;;10.25;87.35;101632.78;5026028;28;20217;-72
2021/09/06 05:46:47;;;;;;;15.50;12.10;;;;;;;10.25;87.86;101630.09;5024468;28;20205;-74
2021/09/06 05:49:14;;;;;;;16.80;12.37;;;;;;;10.29;88.01;101636.16;5029993;28;20711;-72
2021/09/06 05:51:40;;;;;;;22.57;11.27;;;;;;;10.32;88.16;101634.22;5030542;28;20221;-72
2021/09/06 05:54:07;;;;;;;23.33;12.40;;;;;;;10.35;87.77;101639.41;5034949;28;20228;-72
2021/09/06 05:56:34;;;;;;;24.77;12.73;;;;;;;10.36;88.36;101638.47;5035904;28;20206;-72
2021/09/06 05:59:00;;;;;;;18.77;10.77;;;;;;;10.39;87.84;101640.97;5034871;28;20231;-72
2021/09/06 06:01:28;;;;;;;22.27;11.37;;;;;;;10.38;87.69;101639.28;5038237;28;20680;-72
2021/09/06 06:03:54;;;;;;;25.47;12.00;;;;;;;10.39;87.75;101632.97;5032163;28;20578;-72
2021/09/06 06:06:21;;;;;;;14.77;10.77;;;;;;;10.43;88.29;101649.69;5035002;28;20202;-72
2021/09/06 06:08:47;;;;;;;26.77;11.97;;;;;;;10.47;88.09;101639.75;5029265;28;20706;-72
2021/09/06 06:11:14;;;;;;;60.60;13.30;;;;;;;10.52;87.97;101643.09;5034637;28;20202;-72
2021/09/06 06:13:41;;;;;;;12.63;10.13;;;;;;;10.56;88.23;101644.66;5041960;28;20240;-72
2021/09/06 06:16:07;;;;;;;26.03;10.30;;;;;;;10.58;88.06;101640.97;5043280;28;20206;-72
2021/09/06 06:18:35;;;;;;;27.40;10.10;;;;;;;10.61;87.72;101640.81;5039112;28;20238;-72
2021/09/06 06:21:02;;;;;;;25.97;11.17;;;;;;;10.63;87.96;101632.75;5038582;28;20198;-72
2021/09/06 06:23:28;;;;;;;30.10;10.93;;;;;;;10.66;88.02;101637.94;5040833;28;20230;-72
2021/09/06 06:25:55;;;;;;;23.00;9.87;;;;;;;10.67;87.76;101637.88;5043744;28;20208;-72
2021/09/06 06:28:21;;;;;;;14.03;8.60;;;;;;;10.68;87.72;101636.94;5034867;28;20253;-72
2021/09/06 06:30:48;;;;;;;29.43;9.17;;;;;;;10.71;87.74;101636.81;5038722;28;20296;-72
2021/09/06 06:33:14;;;;;;;17.23;9.37;;;;;;;10.74;87.02;101639.31;5036742;28;20204;-72
2021/09/06 06:35:43;;;;;;;15.77;8.33;;;;;;;10.80;87.77;101635.47;5038953;28;20671;-72
2021/09/06 06:38:09;;;;;;;20.37;9.83;;;;;;;10.85;87.60;101644.13;5040246;28;20225;-72
2021/09/06 06:40:36;;;;;;;38.07;10.40;;;;;;;10.87;87.67;101642.25;5036194;28;20206;-72
2021/09/06 06:43:03;;;;;;;20.80;9.47;;;;;;;10.90;87.50;101642.09;5038689;28;20213;-73
2021/09/06 06:45:31;;;;;;;21.20;10.10;;;;;;;10.96;87.45;101652.44;5039316;28;20208;-72
2021/09/06 06:47:57;;;;;;;17.87;11.00;;;;;;;11.03;87.72;101651.22;5036789;28;20230;-72
2021/09/06 06:50:24;;;;;;;17.97;9.67;;;;;;;11.10;87.48;101655.31;5027785;28;20199;-72
2021/09/06 06:52:54;;;;;;;14.90;10.07;;;;;;;11.19;87.77;101663.78;5032022;28;20198;-73
2021/09/06 06:55:21;;;;;;;19.87;11.50;;;;;;;11.25;87.55;101655.50;5037306;28;20308;-72
2021/09/06 06:57:47;;;;;;;17.07;9.60;;;;;;;11.30;87.86;101653.44;5062067;22;20680;-73
2021/09/06 07:00:15;;;;;;;20.97;10.47;;;;;;;11.36;87.48;101654.00;5038280;28;20198;-73
2021/09/06 07:02:41;;;;;;;16.80;9.67;;;;;;;11.43;87.53;101652.75;5038654;28;20202;-73
2021/09/06 07:05:09;;;;;;;12.20;9.83;;;;;;;11.51;87.38;101654.16;5037359;28;20203;-72
2021/09/06 07:07:35;;;;;;;13.77;9.47;;;;;;;11.57;87.44;101654.72;5030533;28;20211;-73
2021/09/06 07:10:03;;;;;;;14.53;9.83;;;;;;;11.65;87.36;101657.81;5029544;28;20229;-73
2021/09/06 07:12:30;;;;;;;12.90;9.83;;;;;;;11.72;87.25;101655.72;5035767;28;20211;-74
2021/09/06 07:14:57;;;;;;;13.63;9.83;;;;;;;11.80;86.98;101662.44;5036262;28;20227;-73
2021/09/06 07:17:23;;;;;;;14.93;10.53;;;;;;;11.87;87.06;101668.28;5030126;28;20214;-73
2021/09/06 07:19:50;;;;;;;11.73;8.87;;;;;;;11.94;86.89;101659.03;5035142;28;20555;-73
2021/09/06 07:22:16;;;;;;;13.83;9.30;;;;;;;12.01;86.70;101657.72;5041144;28;20204;-74
2021/09/06 07:24:43;;;;;;;12.90;9.50;;;;;;;12.08;86.62;101664.47;5038884;28;20200;-74
2021/09/06 07:27:11;;;;;;;14.73;10.07;;;;;;;12.16;86.49;101658.75;5040870;28;20673;-73
2021/09/06 07:29:37;;;;;;;13.13;9.47;;;;;;;12.20;86.42;101670.97;5039398;28;20257;-74
2021/09/06 07:32:04;;;;;;;17.70;10.37;;;;;;;12.28;86.39;101670.56;5041214;28;20198;-73
2021/09/06 07:34:35;;;;;;;13.00;9.93;;;;;;;12.36;86.53;101671.03;5038953;28;20708;-72
2021/09/06 07:37:01;;;;;;;12.77;9.80;;;;;;;12.44;86.45;101669.66;5040476;28;20261;-73
2021/09/06 07:39:28;;;;;;;12.87;9.80;;;;;;;12.51;86.07;101670.19;5039406;28;20226;-73
2021/09/06 07:41:54;;;;;;;13.23;9.57;;;;;;;12.57;86.05;101676.97;5040299;28;20206;-73
2021/09/06 07:44:22;;;;;;;15.70;9.53;;;;;;;12.62;86.13;101677.59;5041228;28;20586;-72
2021/09/06 07:46:50;;;;;;;11.27;9.20;;;;;;;12.67;85.78;101678.22;5031063;28;20205;-72
2021/09/06 07:49:17;;;;;;;17.20;10.00;;;;;;;12.73;86.10;101676.03;5033931;28;20224;-73
2021/09/06 07:51:46;;;;;;;14.40;9.33;;;;;;;12.81;85.94;101683.63;5040915;28;20692;-73
2021/09/06 07:54:12;;;;;;;11.07;8.73;;;;;;;12.86;86.08;101682.44;5034562;28;20254;-73
2021/09/06 07:56:39;;;;;;;18.50;8.87;;;;;;;12.92;86.03;101683.00;5039932;28;20225;-73
2021/09/06 07:59:05;;;;;;;17.73;10.73;;;;;;;12.93;85.35;101679.41;5032631;28;20722;-73
2021/09/06 08:01:33;;;;;;;21.90;10.83;;;;;;;12.97;85.36;101679.13;5040783;28;20217;-72
2021/09/06 08:04:00;;;;;;;26.97;10.27;;;;;;;13.01;85.44;101690.53;5036468;28;20209;-73
2021/09/06 08:06:26;;;;;;;11.63;9.80;;;;;;;13.06;85.57;101680.44;5040452;28;20235;-73
2021/09/06 08:08:53;;;;;;;13.80;10.77;;;;;;;13.12;85.53;101683.59;5039180;28;20244;-73
2021/09/06 08:11:19;;;;;;;14.97;10.40;;;;;;;13.20;85.61;101696.59;5037508;28;20213;-74
2021/09/06 08:13:46;;;;;;;15.60;10.87;;;;;;;13.25;85.53;101693.66;5027949;28;20197;-74
2021/09/06 08:16:12;;;;;;;20.40;12.00;;;;;;;13.32;85.57;101700.34;5032936;28;20202;-73
2021/09/06 08:18:40;;;;;;;17.67;11.63;;;;;;;13.38;85.75;101700.00;5042136;28;20605;-73
2021/09/06 08:21:07;;;;;;;15.30;11.97;;;;;;;13.44;86.07;101694.28;5034709;28;20207;-73
2021/09/06 08:23:34;;;;;;;23.27;12.23;;;;;;;13.52;85.66;101700.06;5033924;28;20318;-73
2021/09/06 08:26:00;;;;;;;17.97;12.37;;;;;;;13.57;85.83;101697.13;5041818;28;20206;-73
2021/09/06 08:28:27;;;;;;;17.47;13.10;;;;;;;13.64;86.20;101701.13;5036516;28;20613;-73
2021/09/06 08:30:54;;;;;;;17.67;13.03;;;;;;;13.74;85.90;101697.84;5047496;28;20197;-72
2021/09/06 08:33:20;;;;;;;19.00;12.03;;;;;;;13.82;85.74;101705.38;5036717;28;20202;-73
2021/09/06 08:35:48;;;;;;;16.17;12.83;;;;;;;13.88;85.96;101705.91;5050097;28;20225;-74
2021/09/06 08:38:15;;;;;;;19.97;13.70;;;;;;;13.96;85.69;101707.25;5039489;28;20229;-74
2021/09/06 08:40:42;;;;;;;26.67;15.10;;;;;;;14.00;85.29;101708.78;5036112;28;20252;-74
2021/09/06 08:43:08;;;;;;;20.10;14.07;;;;;;;14.06;85.54;101703.91;5040582;28;20202;-74
2021/09/06 08:45:36;;;;;;;18.13;13.97;;;;;;;14.12;85.49;101714.25;5036828;28;20232;-73
2021/09/06 08:48:03;;;;;;;19.13;13.97;;;;;;;14.22;85.62;101709.19;5045529;28;20218;-74
2021/09/06 08:50:30;;;;;;;21.80;15.60;;;;;;;14.31;85.44;101705.97;5037659;28;20210;-73
2021/09/06 08:52:58;;;;;;;24.17;15.83;;;;;;;14.38;85.14;101701.91;5049446;28;20201;-74
2021/09/06 08:55:24;;;;;;;19.07;14.47;;;;;;;14.48;85.57;101705.78;5039975;28;20287;-74
2021/09/06 08:57:51;;;;;;;20.57;15.30;;;;;;;14.55;84.82;101706.25;5045026;28;20226;-75
2021/09/06 09:00:26;;;;;;;21.43;15.63;;;;;;;14.59;84.58;101708.66;5039826;28;20207;-75
2021/09/06 09:02:53;;;;;;;24.83;16.00;;;;;;;14.66;84.35;101717.19;5032459;28;20198;-76
2021/09/06 09:05:19;;;;;;;23.33;16.47;;;;;;;14.75;84.68;101713.88;5039778;28;21950;-73
2021/09/06 09:07:46;;;;;;;22.30;16.20;;;;;;;14.86;84.60;101708.72;5025984;28;20222;-74
2021/09/06 09:10:26;;;;;;;20.47;15.33;;;;;;;15.06;85.00;101710.06;5043214;28;20288;-74
2021/09/06 09:13:02;;;;;;;25.20;17.40;;;;;;;15.25;85.06;101699.84;5027496;28;20598;-75
2021/09/06 09:15:29;;;;;;;21.37;16.20;;;;;;;15.46;84.37;101710.13;5039790;28;20732;-75
2021/09/06 09:17:55;;;;;;;24.83;16.73;;;;;;;15.62;83.95;101705.47;5041804;28;20225;-74
2021/09/06 09:20:22;;;;;;;24.50;16.60;;;;;;;15.80;83.70;101714.97;5042887;28;20590;-74
2021/09/06 09:22:48;;;;;;;20.93;15.43;;;;;;;15.95;83.07;101713.91;5041790;28;20222;-74
2021/09/06 09:25:16;;;;;;;24.23;16.63;;;;;;;16.09;82.51;101718.38;5032105;28;20200;-75
2021/09/06 09:27:45;;;;;;;24.20;16.80;;;;;;;16.22;81.84;101707.59;5042602;28;20229;-75
2021/09/06 09:30:22;;;;;;;22.30;16.57;;;;;;;16.36;81.48;101710.19;5037049;28;20204;-75
2021/09/06 09:33:01;;;;;;;22.93;16.67;;;;;;;16.52;81.10;101713.50;5036459;28;20211;-75
2021/09/06 09:35:30;;;;;;;25.60;18.27;;;;;;;16.70;80.59;101715.88;5037589;28;20220;-75
2021/09/06 09:38:02;;;;;;;22.47;16.03;;;;;;;16.83;80.40;101711.34;5046001;28;20224;-75
2021/09/06 09:40:34;;;;;;;23.50;16.97;;;;;;;16.99;79.92;101718.19;5040063;28;20209;-74
2021/09/06 09:43:00;;;;;;;23.37;16.30;;;;;;;17.13;79.38;101717.16;5034362;28;20680;-74
2021/09/06 09:45:27;;;;;;;21.80;15.87;;;;;;;17.28;79.35;101716.00;5041921;28;20208;-74
2021/09/06 09:47:56;;;;;;;27.77;16.57;;;;;;;17.47;78.92;101712.81;5032690;28;20702;-74
2021/09/06 09:50:23;;;;;;;29.43;17.97;;;;;;;17.66;77.79;101718.53;5036439;28;20205;-75
2021/09/06 09:52:52;;;;;;;34.27;17.80;;;;;;;17.82;76.73;101715.53;5040935;28;20241;-75
2021/09/06 09:55:19;;;;;;;48.70;18.50;;;;;;;17.97;76.10;101711.66;5039176;28;20233;-75
2021/09/06 09:57:47;;;;;;;49.33;19.90;;;;;;;18.10;75.17;101708.84;5036986;28;20237;-74
2021/09/06 10:00:15;;;;;;;48.37;19.33;;;;;;;18.24;75.02;101710.50;5038901;28;20225;-74
2021/09/06 10:02:45;;;;;;;44.00;19.70;;;;;;;18.38;74.33;101702.16;5043221;28;20202;-75
2021/09/06 10:05:14;;;;;;;37.37;19.43;;;;;;;18.51;73.70;101700.19;5039301;28;20664;-75
2021/09/06 10:07:46;;;;;;;37.57;20.10;;;;;;;18.65;72.46;101701.81;5036836;28;20776;-75
2021/09/06 10:10:17;;;;;;;31.30;19.07;;;;;;;18.74;71.60;101695.69;5038496;28;20286;-75
2021/09/06 10:12:45;;;;;;;30.60;20.43;;;;;;;18.87;70.60;101698.22;5040449;28;20208;-73
2021/09/06 10:15:13;;;;;;;22.67;17.50;;;;;;;19.00;69.43;101704.34;5040162;28;20236;-74
2021/09/06 10:17:43;;;;;;;28.80;19.53;;;;;;;19.14;69.08;101693.28;5042427;28;20232;-75
2021/09/06 10:20:21;;;;;;;27.97;19.20;;;;;;;19.32;68.74;101691.75;5035036;28;20215;-75
2021/09/06 10:23:00;;;;;;;25.87;18.80;;;;;;;19.47;67.91;101686.03;5031540;28;20197;-74
2021/09/06 10:25:32;;;;;;;26.97;18.67;;;;;;;19.64;66.98;101699.88;5031015;28;20213;-74
2021/09/06 10:28:03;;;;;;;22.60;17.93;;;;;;;19.79;66.35;101686.03;5032786;28;20222;-75
2021/09/06 10:30:37;;;;;;;25.93;18.63;;;;;;;19.95;64.97;101684.56;5037607;28;20237;-75
2021/09/06 10:33:04;;;;;;;24.13;18.00;;;;;;;20.08;64.71;101679.81;5038777;28;20209;-74
2021/09/06 10:35:30;;;;;;;23.30;17.40;;;;;;;20.25;63.72;101672.91;5037446;28;20733;-74
2021/09/06 10:38:03;;;;;;;24.13;18.60;;;;;;;20.38;62.75;101672.75;5041428;28;20228;-75
2021/09/06 10:40:31;;;;;;;25.83;18.93;;;;;;;20.49;62.26;101669.94;5036848;28;20213;-74
2021/09/06 10:42:58;;;;;;;23.97;18.60;;;;;;;20.58;62.13;101666.41;5032303;28;20667;-74
2021/09/06 10:45:27;;;;;;;22.42;17.10;;;;;;;20.72;61.77;101665.19;5037092;28;20208;-73
2021/09/06 10:48:04;;;;;;;28.48;18.13;;;;;;;20.86;60.87;101670.19;5036345;28;20283;-74
2021/09/06 10:50:31;;;;;;;22.57;17.73;;;;;;;20.95;60.16;101669.38;5041121;28;20205;-73
2021/09/06 10:52:57;;;;;;;21.45;16.73;;;;;;;21.07;60.06;101675.50;5037831;28;20201;-73
2021/09/06 10:55:24;;;;;;;25.00;16.33;;;;;;;21.14;59.29;101663.97;5036225;28;20223;-73
2021/09/06 10:57:50;;;;;;;24.77;17.88;;;;;;;21.21;58.34;101655.31;5043058;28;20228;-74
2021/09/06 11:00:19;;;;;;;24.83;17.90;;;;;;;21.24;58.19;101661.31;5041269;28;20209;-75
2021/09/06 11:02:47;;;;;;;25.02;18.10;;;;;;;21.31;58.48;101670.59;5036584;28;20201;-75
2021/09/06 11:05:25;;;;;;;28.25;19.50;;;;;;;21.40;58.33;101668.88;5088905;28;20555;-73
2021/09/06 11:08:03;;;;;;;30.00;19.10;;;;;;;21.50;58.47;101663.47;5099792;28;20211;-75
2021/09/06 11:10:30;;;;;;;23.63;18.95;;;;;;;21.55;57.91;101664.72;5094954;28;20581;-75